sensor_id;sensor_type;location;lat;lon;timestamp;P1;durP1;ratioP1;P2;durP2;ratioP2
5961;SDS011;3007;50.770;0.250;2022-10-19T00:00:21;11.93;;;2.20;;
5961;SDS011;3007;50.770;0.250;2022-10-19T00:02:48;9.87;;;1.77;;
5961;SDS011;3007;50.770;0.250;2022-10-19T00:05:15;9.40;;;2.20;;
5961;SDS011;3007;50.770;0.250;2022-10-19T00:07:42;11.97;;;1.73;;
5961;SDS011;3007;50.770;0.250;2022-10-19T00:10:10;5.93;;;1.83;;
5961;SDS011;3007;50.770;0.250;2022-10-19T00:12:37;12.00;;;2.20;;
5961;SDS011;3007;50.770;0.250;2022-10-19T00:15:04;8.83;;;1.93;;
5961;SDS011;3007;50.770;0.250;2022-10-19T00:17:32;8.83;;;2.43;;
5961;SDS011;3007;50.770;0.250;2022-10-19T00:19:59;10.97;;;2.73;;
5961;SDS011;3007;50.770;0.250;2022-10-19T00:22:26;10.47;;;1.90;;
5961;SDS011;3007;50.770;0.250;2022-10-19T00:24:54;15.10;;;3.67;;
5961;SDS011;3007;50.770;0.250;2022-10-19T00:27:23;11.93;;;2.30;;
5961;SDS011;3007;50.770;0.250;2022-10-19T00:29:50;9.50;;;2.47;;
5961;SDS011;3007;50.770;0.250;2022-10-19T00:32:17;6.57;;;2.10;;
5961;SDS011;3007;50.770;0.250;2022-10-19T00:34:43;8.97;;;1.93;;
5961;SDS011;3007;50.770;0.250;2022-10-19T00:37:10;11.80;;;2.03;;
5961;SDS011;3007;50.770;0.250;2022-10-19T00:39:37;16.20;;;2.50;;
5961;SDS011;3007;50.770;0.250;2022-10-19T00:42:04;8.07;;;2.40;;
5961;SDS011;3007;50.770;0.250;2022-10-19T00:47:36;7.00;;;2.63;;
5961;SDS011;3007;50.770;0.250;2022-10-19T00:50:03;7.70;;;1.80;;
5961;SDS011;3007;50.770;0.250;2022-10-19T00:52:31;14.70;;;3.13;;
5961;SDS011;3007;50.770;0.250;2022-10-19T00:54:58;8.20;;;1.80;;
5961;SDS011;3007;50.770;0.250;2022-10-19T00:57:26;12.40;;;2.10;;
5961;SDS011;3007;50.770;0.250;2022-10-19T00:59:55;9.33;;;1.87;;
5961;SDS011;3007;50.770;0.250;2022-10-19T01:02:23;8.53;;;2.30;;
5961;SDS011;3007;50.770;0.250;2022-10-19T01:04:51;9.80;;;2.87;;
5961;SDS011;3007;50.770;0.250;2022-10-19T01:07:19;9.03;;;2.37;;
5961;SDS011;3007;50.770;0.250;2022-10-19T01:09:46;12.70;;;2.40;;
5961;SDS011;3007;50.770;0.250;2022-10-19T01:12:17;9.10;;;2.60;;
5961;SDS011;3007;50.770;0.250;2022-10-19T01:14:57;14.70;;;2.53;;
5961;SDS011;3007;50.770;0.250;2022-10-19T01:17:34;12.83;;;2.43;;
5961;SDS011;3007;50.770;0.250;2022-10-19T01:23:29;6.97;;;2.53;;
5961;SDS011;3007;50.770;0.250;2022-10-19T01:26:09;11.27;;;2.90;;
5961;SDS011;3007;50.770;0.250;2022-10-19T01:28:52;12.43;;;2.17;;
5961;SDS011;3007;50.770;0.250;2022-10-19T01:31:30;12.17;;;2.23;;
5961;SDS011;3007;50.770;0.250;2022-10-19T01:34:08;11.53;;;2.20;;
5961;SDS011;3007;50.770;0.250;2022-10-19T01:36:40;11.37;;;2.63;;
5961;SDS011;3007;50.770;0.250;2022-10-19T01:39:16;14.37;;;3.63;;
5961;SDS011;3007;50.770;0.250;2022-10-19T01:41:51;14.80;;;2.87;;
5961;SDS011;3007;50.770;0.250;2022-10-19T01:44:24;12.80;;;2.70;;
5961;SDS011;3007;50.770;0.250;2022-10-19T01:46:58;7.40;;;2.47;;
5961;SDS011;3007;50.770;0.250;2022-10-19T01:49:31;9.47;;;2.47;;
5961;SDS011;3007;50.770;0.250;2022-10-19T01:52:05;10.63;;;2.83;;
5961;SDS011;3007;50.770;0.250;2022-10-19T01:54:35;10.93;;;3.33;;
5961;SDS011;3007;50.770;0.250;2022-10-19T01:57:07;9.67;;;3.40;;
5961;SDS011;3007;50.770;0.250;2022-10-19T01:59:36;8.97;;;3.73;;
5961;SDS011;3007;50.770;0.250;2022-10-19T02:02:06;9.23;;;3.90;;
5961;SDS011;3007;50.770;0.250;2022-10-19T02:04:35;10.77;;;3.90;;
5961;SDS011;3007;50.770;0.250;2022-10-19T02:07:03;11.03;;;3.83;;
5961;SDS011;3007;50.770;0.250;2022-10-19T02:09:32;10.53;;;4.50;;
5961;SDS011;3007;50.770;0.250;2022-10-19T02:12:00;16.57;;;4.60;;
5961;SDS011;3007;50.770;0.250;2022-10-19T02:14:30;15.33;;;6.53;;
5961;SDS011;3007;50.770;0.250;2022-10-19T02:17:00;11.00;;;5.57;;
5961;SDS011;3007;50.770;0.250;2022-10-19T02:19:30;14.30;;;5.63;;
5961;SDS011;3007;50.770;0.250;2022-10-19T02:21:57;16.40;;;6.07;;
5961;SDS011;3007;50.770;0.250;2022-10-19T02:24:24;14.87;;;6.00;;
5961;SDS011;3007;50.770;0.250;2022-10-19T02:26:51;18.47;;;6.53;;
5961;SDS011;3007;50.770;0.250;2022-10-19T02:29:18;15.13;;;5.87;;
5961;SDS011;3007;50.770;0.250;2022-10-19T02:31:45;15.23;;;6.07;;
5961;SDS011;3007;50.770;0.250;2022-10-19T02:34:13;14.00;;;7.20;;
5961;SDS011;3007;50.770;0.250;2022-10-19T02:36:41;16.37;;;7.30;;
5961;SDS011;3007;50.770;0.250;2022-10-19T02:39:08;13.43;;;7.73;;
5961;SDS011;3007;50.770;0.250;2022-10-19T02:41:36;15.43;;;7.77;;
5961;SDS011;3007;50.770;0.250;2022-10-19T02:44:08;20.43;;;8.23;;
5961;SDS011;3007;50.770;0.250;2022-10-19T02:46:41;21.80;;;8.30;;
5961;SDS011;3007;50.770;0.250;2022-10-19T02:49:10;18.07;;;9.27;;
5961;SDS011;3007;50.770;0.250;2022-10-19T02:51:39;17.90;;;8.70;;
5961;SDS011;3007;50.770;0.250;2022-10-19T02:54:20;23.30;;;9.53;;
5961;SDS011;3007;50.770;0.250;2022-10-19T02:56:48;18.50;;;9.73;;
5961;SDS011;3007;50.770;0.250;2022-10-19T02:59:15;18.43;;;10.03;;
5961;SDS011;3007;50.770;0.250;2022-10-19T03:01:42;24.77;;;9.83;;
5961;SDS011;3007;50.770;0.250;2022-10-19T03:04:09;19.50;;;10.30;;
5961;SDS011;3007;50.770;0.250;2022-10-19T03:06:36;23.73;;;11.13;;
5961;SDS011;3007;50.770;0.250;2022-10-19T03:09:04;18.60;;;10.17;;
5961;SDS011;3007;50.770;0.250;2022-10-19T03:11:31;21.97;;;9.80;;
5961;SDS011;3007;50.770;0.250;2022-10-19T03:13:58;25.37;;;10.77;;
5961;SDS011;3007;50.770;0.250;2022-10-19T03:16:25;21.40;;;10.43;;
5961;SDS011;3007;50.770;0.250;2022-10-19T03:18:52;20.33;;;10.50;;
5961;SDS011;3007;50.770;0.250;2022-10-19T03:21:19;17.17;;;10.03;;
5961;SDS011;3007;50.770;0.250;2022-10-19T03:23:46;20.40;;;10.80;;
5961;SDS011;3007;50.770;0.250;2022-10-19T03:26:14;23.30;;;11.97;;
5961;SDS011;3007;50.770;0.250;2022-10-19T03:28:42;22.23;;;11.03;;
5961;SDS011;3007;50.770;0.250;2022-10-19T03:31:09;19.57;;;11.17;;
5961;SDS011;3007;50.770;0.250;2022-10-19T03:33:36;24.23;;;11.53;;
5961;SDS011;3007;50.770;0.250;2022-10-19T03:36:13;27.57;;;11.30;;
5961;SDS011;3007;50.770;0.250;2022-10-19T03:38:46;18.07;;;11.50;;
5961;SDS011;3007;50.770;0.250;2022-10-19T03:41:16;26.23;;;13.10;;
5961;SDS011;3007;50.770;0.250;2022-10-19T03:43:43;25.03;;;12.43;;
5961;SDS011;3007;50.770;0.250;2022-10-19T03:46:10;26.17;;;12.63;;
5961;SDS011;3007;50.770;0.250;2022-10-19T03:48:37;29.37;;;13.30;;
5961;SDS011;3007;50.770;0.250;2022-10-19T03:51:04;25.60;;;12.63;;
5961;SDS011;3007;50.770;0.250;2022-10-19T03:53:32;25.27;;;13.93;;
5961;SDS011;3007;50.770;0.250;2022-10-19T03:56:01;21.63;;;12.70;;
5961;SDS011;3007;50.770;0.250;2022-10-19T03:58:30;20.27;;;12.10;;
5961;SDS011;3007;50.770;0.250;2022-10-19T04:00:58;23.83;;;12.27;;
5961;SDS011;3007;50.770;0.250;2022-10-19T04:03:25;21.80;;;12.27;;
5961;SDS011;3007;50.770;0.250;2022-10-19T04:05:59;20.10;;;12.20;;
5961;SDS011;3007;50.770;0.250;2022-10-19T04:08:27;21.67;;;11.10;;
5961;SDS011;3007;50.770;0.250;2022-10-19T04:10:57;24.67;;;11.83;;
5961;SDS011;3007;50.770;0.250;2022-10-19T04:13:25;21.00;;;11.70;;
5961;SDS011;3007;50.770;0.250;2022-10-19T04:15:53;22.13;;;11.87;;
5961;SDS011;3007;50.770;0.250;2022-10-19T04:18:20;25.50;;;12.60;;
5961;SDS011;3007;50.770;0.250;2022-10-19T04:20:47;25.90;;;12.63;;
5961;SDS011;3007;50.770;0.250;2022-10-19T04:23:13;21.37;;;11.87;;
5961;SDS011;3007;50.770;0.250;2022-10-19T04:25:40;26.93;;;12.60;;
5961;SDS011;3007;50.770;0.250;2022-10-19T04:28:07;24.67;;;12.17;;
5961;SDS011;3007;50.770;0.250;2022-10-19T04:30:34;24.00;;;11.90;;
5961;SDS011;3007;50.770;0.250;2022-10-19T04:33:02;24.97;;;12.37;;
5961;SDS011;3007;50.770;0.250;2022-10-19T04:35:29;26.27;;;12.43;;
5961;SDS011;3007;50.770;0.250;2022-10-19T04:37:57;21.57;;;12.93;;
5961;SDS011;3007;50.770;0.250;2022-10-19T04:40:24;22.27;;;13.73;;
5961;SDS011;3007;50.770;0.250;2022-10-19T04:42:51;27.97;;;13.87;;
5961;SDS011;3007;50.770;0.250;2022-10-19T04:45:17;23.77;;;12.97;;
5961;SDS011;3007;50.770;0.250;2022-10-19T04:47:44;23.87;;;13.27;;
5961;SDS011;3007;50.770;0.250;2022-10-19T04:50:12;24.27;;;13.47;;
5961;SDS011;3007;50.770;0.250;2022-10-19T04:52:39;24.13;;;13.50;;
5961;SDS011;3007;50.770;0.250;2022-10-19T04:55:08;21.50;;;12.90;;
5961;SDS011;3007;50.770;0.250;2022-10-19T04:57:35;21.17;;;12.60;;
5961;SDS011;3007;50.770;0.250;2022-10-19T05:00:02;20.17;;;12.47;;
5961;SDS011;3007;50.770;0.250;2022-10-19T05:02:30;29.63;;;13.23;;
5961;SDS011;3007;50.770;0.250;2022-10-19T05:04:57;24.83;;;12.37;;
5961;SDS011;3007;50.770;0.250;2022-10-19T05:07:25;32.00;;;13.73;;
5961;SDS011;3007;50.770;0.250;2022-10-19T05:09:52;24.10;;;12.37;;
5961;SDS011;3007;50.770;0.250;2022-10-19T05:12:19;27.33;;;12.40;;
5961;SDS011;3007;50.770;0.250;2022-10-19T05:14:45;28.07;;;12.10;;
5961;SDS011;3007;50.770;0.250;2022-10-19T05:17:12;21.33;;;11.63;;
5961;SDS011;3007;50.770;0.250;2022-10-19T05:19:39;23.33;;;11.37;;
5961;SDS011;3007;50.770;0.250;2022-10-19T05:22:07;23.10;;;10.53;;
5961;SDS011;3007;50.770;0.250;2022-10-19T05:24:35;18.97;;;10.33;;
5961;SDS011;3007;50.770;0.250;2022-10-19T05:27:02;24.20;;;10.27;;
5961;SDS011;3007;50.770;0.250;2022-10-19T05:29:29;23.07;;;9.93;;
5961;SDS011;3007;50.770;0.250;2022-10-19T05:31:57;24.93;;;9.77;;
5961;SDS011;3007;50.770;0.250;2022-10-19T05:34:25;23.17;;;10.17;;
5961;SDS011;3007;50.770;0.250;2022-10-19T05:36:52;19.00;;;8.03;;
5961;SDS011;3007;50.770;0.250;2022-10-19T05:39:20;19.47;;;8.47;;
5961;SDS011;3007;50.770;0.250;2022-10-19T05:41:49;21.47;;;8.93;;
5961;SDS011;3007;50.770;0.250;2022-10-19T05:44:16;21.07;;;8.60;;
5961;SDS011;3007;50.770;0.250;2022-10-19T05:46:45;18.43;;;7.93;;
5961;SDS011;3007;50.770;0.250;2022-10-19T05:49:13;21.47;;;8.07;;
5961;SDS011;3007;50.770;0.250;2022-10-19T05:51:41;18.07;;;7.27;;
5961;SDS011;3007;50.770;0.250;2022-10-19T05:54:08;16.80;;;6.87;;
5961;SDS011;3007;50.770;0.250;2022-10-19T05:56:36;19.33;;;7.13;;
5961;SDS011;3007;50.770;0.250;2022-10-19T05:59:05;15.73;;;6.60;;
5961;SDS011;3007;50.770;0.250;2022-10-19T06:01:33;19.47;;;7.53;;
5961;SDS011;3007;50.770;0.250;2022-10-19T06:04:01;20.53;;;7.63;;
5961;SDS011;3007;50.770;0.250;2022-10-19T06:06:29;14.57;;;8.83;;
5961;SDS011;3007;50.770;0.250;2022-10-19T06:08:57;15.67;;;7.73;;
5961;SDS011;3007;50.770;0.250;2022-10-19T06:11:25;18.77;;;7.97;;
5961;SDS011;3007;50.770;0.250;2022-10-19T06:13:53;23.13;;;8.27;;
5961;SDS011;3007;50.770;0.250;2022-10-19T06:16:23;14.80;;;8.17;;
5961;SDS011;3007;50.770;0.250;2022-10-19T06:18:52;19.93;;;8.20;;
5961;SDS011;3007;50.770;0.250;2022-10-19T06:21:20;16.20;;;7.47;;
5961;SDS011;3007;50.770;0.250;2022-10-19T06:23:48;17.30;;;6.97;;
5961;SDS011;3007;50.770;0.250;2022-10-19T06:26:16;15.87;;;7.20;;
5961;SDS011;3007;50.770;0.250;2022-10-19T06:28:43;17.33;;;7.13;;
5961;SDS011;3007;50.770;0.250;2022-10-19T06:31:10;19.00;;;7.43;;
5961;SDS011;3007;50.770;0.250;2022-10-19T06:33:39;19.83;;;7.60;;
5961;SDS011;3007;50.770;0.250;2022-10-19T06:36:06;17.70;;;7.03;;
5961;SDS011;3007;50.770;0.250;2022-10-19T06:38:34;18.47;;;7.33;;
5961;SDS011;3007;50.770;0.250;2022-10-19T06:41:01;14.83;;;7.03;;
5961;SDS011;3007;50.770;0.250;2022-10-19T06:43:28;19.47;;;7.67;;
5961;SDS011;3007;50.770;0.250;2022-10-19T06:45:55;17.70;;;6.87;;
5961;SDS011;3007;50.770;0.250;2022-10-19T06:48:25;19.07;;;7.30;;
5961;SDS011;3007;50.770;0.250;2022-10-19T06:50:56;16.83;;;7.10;;
5961;SDS011;3007;50.770;0.250;2022-10-19T06:53:23;17.03;;;7.03;;
5961;SDS011;3007;50.770;0.250;2022-10-19T06:55:51;16.37;;;6.73;;
5961;SDS011;3007;50.770;0.250;2022-10-19T06:58:18;20.97;;;8.03;;
5961;SDS011;3007;50.770;0.250;2022-10-19T07:00:45;12.97;;;7.00;;
5961;SDS011;3007;50.770;0.250;2022-10-19T07:03:18;19.13;;;7.30;;
5961;SDS011;3007;50.770;0.250;2022-10-19T07:05:51;12.97;;;7.23;;
5961;SDS011;3007;50.770;0.250;2022-10-19T07:08:19;20.77;;;8.17;;
5961;SDS011;3007;50.770;0.250;2022-10-19T07:10:48;15.33;;;7.23;;
5961;SDS011;3007;50.770;0.250;2022-10-19T07:13:15;20.27;;;8.03;;
5961;SDS011;3007;50.770;0.250;2022-10-19T07:15:42;16.17;;;7.33;;
5961;SDS011;3007;50.770;0.250;2022-10-19T07:18:09;17.80;;;8.60;;
5961;SDS011;3007;50.770;0.250;2022-10-19T07:20:36;13.53;;;8.17;;
5961;SDS011;3007;50.770;0.250;2022-10-19T07:23:03;14.30;;;7.67;;
5961;SDS011;3007;50.770;0.250;2022-10-19T07:25:31;20.33;;;7.93;;
5961;SDS011;3007;50.770;0.250;2022-10-19T07:28:01;21.40;;;8.50;;
5961;SDS011;3007;50.770;0.250;2022-10-19T07:30:28;15.47;;;7.50;;
5961;SDS011;3007;50.770;0.250;2022-10-19T07:32:54;19.53;;;8.30;;
5961;SDS011;3007;50.770;0.250;2022-10-19T07:35:21;20.33;;;8.17;;
5961;SDS011;3007;50.770;0.250;2022-10-19T07:37:52;16.60;;;7.60;;
5961;SDS011;3007;50.770;0.250;2022-10-19T07:40:19;17.20;;;8.47;;
5961;SDS011;3007;50.770;0.250;2022-10-19T07:42:48;21.37;;;8.60;;
5961;SDS011;3007;50.770;0.250;2022-10-19T07:45:15;13.87;;;8.03;;
5961;SDS011;3007;50.770;0.250;2022-10-19T07:47:42;17.47;;;7.40;;
5961;SDS011;3007;50.770;0.250;2022-10-19T07:50:09;16.37;;;7.27;;
5961;SDS011;3007;50.770;0.250;2022-10-19T07:52:36;12.60;;;7.50;;
5961;SDS011;3007;50.770;0.250;2022-10-19T07:55:09;19.07;;;8.33;;
5961;SDS011;3007;50.770;0.250;2022-10-19T07:57:35;20.90;;;8.60;;
5961;SDS011;3007;50.770;0.250;2022-10-19T08:00:04;15.13;;;7.80;;
5961;SDS011;3007;50.770;0.250;2022-10-19T08:02:32;20.77;;;8.77;;
5961;SDS011;3007;50.770;0.250;2022-10-19T08:05:01;13.63;;;7.47;;
5961;SDS011;3007;50.770;0.250;2022-10-19T08:07:29;14.93;;;7.63;;
5961;SDS011;3007;50.770;0.250;2022-10-19T08:09:58;19.83;;;8.57;;
5961;SDS011;3007;50.770;0.250;2022-10-19T08:12:25;16.47;;;8.53;;
5961;SDS011;3007;50.770;0.250;2022-10-19T08:14:53;19.93;;;8.37;;
5961;SDS011;3007;50.770;0.250;2022-10-19T08:17:22;16.93;;;8.03;;
5961;SDS011;3007;50.770;0.250;2022-10-19T08:19:49;22.17;;;8.47;;
5961;SDS011;3007;50.770;0.250;2022-10-19T08:22:15;19.87;;;8.70;;
5961;SDS011;3007;50.770;0.250;2022-10-19T08:24:44;17.00;;;7.97;;
5961;SDS011;3007;50.770;0.250;2022-10-19T08:27:12;22.48;;;10.25;;
5961;SDS011;3007;50.770;0.250;2022-10-19T08:29:39;19.37;;;9.47;;
5961;SDS011;3007;50.770;0.250;2022-10-19T08:32:09;15.20;;;8.50;;
5961;SDS011;3007;50.770;0.250;2022-10-19T08:34:37;15.70;;;8.13;;
5961;SDS011;3007;50.770;0.250;2022-10-19T08:37:05;16.17;;;8.87;;
5961;SDS011;3007;50.770;0.250;2022-10-19T08:39:32;18.87;;;8.70;;
5961;SDS011;3007;50.770;0.250;2022-10-19T08:42:00;14.80;;;7.97;;
5961;SDS011;3007;50.770;0.250;2022-10-19T08:44:33;21.27;;;8.87;;
5961;SDS011;3007;50.770;0.250;2022-10-19T08:47:26;21.83;;;8.67;;
5961;SDS011;3007;50.770;0.250;2022-10-19T08:50:16;13.83;;;8.17;;
5961;SDS011;3007;50.770;0.250;2022-10-19T08:52:44;21.53;;;8.80;;
5961;SDS011;3007;50.770;0.250;2022-10-19T08:55:17;19.40;;;7.60;;
5961;SDS011;3007;50.770;0.250;2022-10-19T08:57:52;18.23;;;8.83;;
5961;SDS011;3007;50.770;0.250;2022-10-19T09:00:31;19.57;;;8.30;;
5961;SDS011;3007;50.770;0.250;2022-10-19T09:03:10;23.40;;;9.27;;
5961;SDS011;3007;50.770;0.250;2022-10-19T09:05:47;22.73;;;9.03;;
5961;SDS011;3007;50.770;0.250;2022-10-19T09:08:20;15.60;;;8.37;;
5961;SDS011;3007;50.770;0.250;2022-10-19T09:10:48;13.07;;;8.13;;
5961;SDS011;3007;50.770;0.250;2022-10-19T09:13:19;16.73;;;8.43;;
5961;SDS011;3007;50.770;0.250;2022-10-19T09:15:52;15.43;;;8.33;;
5961;SDS011;3007;50.770;0.250;2022-10-19T09:18:20;20.30;;;9.23;;
5961;SDS011;3007;50.770;0.250;2022-10-19T09:20:51;23.73;;;9.17;;
5961;SDS011;3007;50.770;0.250;2022-10-19T09:23:25;19.87;;;8.57;;
5961;SDS011;3007;50.770;0.250;2022-10-19T09:25:55;21.00;;;9.43;;
5961;SDS011;3007;50.770;0.250;2022-10-19T09:28:34;22.23;;;8.40;;
5961;SDS011;3007;50.770;0.250;2022-10-19T09:31:09;16.23;;;8.23;;
5961;SDS011;3007;50.770;0.250;2022-10-19T09:33:40;17.80;;;8.87;;
5961;SDS011;3007;50.770;0.250;2022-10-19T09:36:10;13.70;;;8.60;;
5961;SDS011;3007;50.770;0.250;2022-10-19T09:38:37;18.40;;;9.03;;
5961;SDS011;3007;50.770;0.250;2022-10-19T09:41:14;17.10;;;8.73;;
5961;SDS011;3007;50.770;0.250;2022-10-19T09:43:44;24.60;;;8.77;;
5961;SDS011;3007;50.770;0.250;2022-10-19T09:46:19;15.60;;;8.20;;
5961;SDS011;3007;50.770;0.250;2022-10-19T09:48:59;20.87;;;8.60;;
5961;SDS011;3007;50.770;0.250;2022-10-19T09:51:38;21.63;;;8.60;;
5961;SDS011;3007;50.770;0.250;2022-10-19T09:54:21;18.50;;;7.53;;
5961;SDS011;3007;50.770;0.250;2022-10-19T09:56:56;18.07;;;8.33;;
5961;SDS011;3007;50.770;0.250;2022-10-19T09:59:24;22.47;;;8.40;;
5961;SDS011;3007;50.770;0.250;2022-10-19T10:01:58;18.40;;;8.83;;
5961;SDS011;3007;50.770;0.250;2022-10-19T10:04:29;19.00;;;8.70;;
5961;SDS011;3007;50.770;0.250;2022-10-19T10:06:57;14.60;;;8.57;;
5961;SDS011;3007;50.770;0.250;2022-10-19T10:09:25;18.87;;;8.87;;
5961;SDS011;3007;50.770;0.250;2022-10-19T10:11:55;17.13;;;8.67;;
5961;SDS011;3007;50.770;0.250;2022-10-19T10:14:26;17.33;;;8.63;;
5961;SDS011;3007;50.770;0.250;2022-10-19T10:16:54;18.23;;;8.10;;
5961;SDS011;3007;50.770;0.250;2022-10-19T10:19:25;18.20;;;8.30;;
5961;SDS011;3007;50.770;0.250;2022-10-19T10:21:53;19.93;;;8.37;;
5961;SDS011;3007;50.770;0.250;2022-10-19T10:24:23;15.93;;;7.67;;
5961;SDS011;3007;50.770;0.250;2022-10-19T10:26:52;17.77;;;7.50;;
5961;SDS011;3007;50.770;0.250;2022-10-19T10:29:21;17.33;;;8.37;;
5961;SDS011;3007;50.770;0.250;2022-10-19T10:31:50;17.40;;;8.83;;
5961;SDS011;3007;50.770;0.250;2022-10-19T10:34:29;17.83;;;7.83;;
5961;SDS011;3007;50.770;0.250;2022-10-19T10:36:58;15.90;;;7.77;;
5961;SDS011;3007;50.770;0.250;2022-10-19T10:39:27;14.10;;;7.70;;
5961;SDS011;3007;50.770;0.250;2022-10-19T10:41:55;18.67;;;8.17;;
5961;SDS011;3007;50.770;0.250;2022-10-19T10:44:29;13.33;;;7.67;;
5961;SDS011;3007;50.770;0.250;2022-10-19T10:47:01;19.27;;;8.23;;
5961;SDS011;3007;50.770;0.250;2022-10-19T10:49:32;15.47;;;8.30;;
5961;SDS011;3007;50.770;0.250;2022-10-19T10:52:02;15.17;;;7.97;;
5961;SDS011;3007;50.770;0.250;2022-10-19T10:54:32;15.70;;;7.97;;
5961;SDS011;3007;50.770;0.250;2022-10-19T10:57:04;14.90;;;7.67;;
5961;SDS011;3007;50.770;0.250;2022-10-19T10:59:38;13.10;;;7.37;;
5961;SDS011;3007;50.770;0.250;2022-10-19T11:02:13;16.53;;;8.20;;
5961;SDS011;3007;50.770;0.250;2022-10-19T11:04:50;20.90;;;7.90;;
5961;SDS011;3007;50.770;0.250;2022-10-19T11:07:22;14.70;;;6.87;;
5961;SDS011;3007;50.770;0.250;2022-10-19T11:09:53;13.07;;;7.20;;
5961;SDS011;3007;50.770;0.250;2022-10-19T11:12:27;19.67;;;7.50;;
5961;SDS011;3007;50.770;0.250;2022-10-19T11:15:00;14.23;;;6.77;;
5961;SDS011;3007;50.770;0.250;2022-10-19T11:17:32;16.50;;;6.75;;
5961;SDS011;3007;50.770;0.250;2022-10-19T11:20:04;15.02;;;7.07;;
5961;SDS011;3007;50.770;0.250;2022-10-19T11:22:33;12.43;;;6.68;;
5961;SDS011;3007;50.770;0.250;2022-10-19T11:25:18;13.77;;;6.83;;
5961;SDS011;3007;50.770;0.250;2022-10-19T11:27:54;12.90;;;6.00;;
5961;SDS011;3007;50.770;0.250;2022-10-19T11:30:30;12.90;;;6.20;;
5961;SDS011;3007;50.770;0.250;2022-10-19T11:33:03;16.87;;;7.20;;
5961;SDS011;3007;50.770;0.250;2022-10-19T11:35:42;16.10;;;7.18;;
5961;SDS011;3007;50.770;0.250;2022-10-19T11:38:34;14.43;;;6.07;;
5961;SDS011;3007;50.770;0.250;2022-10-19T11:41:12;12.37;;;6.83;;
5961;SDS011;3007;50.770;0.250;2022-10-19T11:43:58;14.47;;;6.80;;
5961;SDS011;3007;50.770;0.250;2022-10-19T11:46:41;11.40;;;6.38;;
5961;SDS011;3007;50.770;0.250;2022-10-19T11:49:20;14.45;;;6.50;;
5961;SDS011;3007;50.770;0.250;2022-10-19T11:51:57;11.93;;;6.93;;
5961;SDS011;3007;50.770;0.250;2022-10-19T11:54:33;14.27;;;7.10;;
5961;SDS011;3007;50.770;0.250;2022-10-19T11:57:09;12.00;;;6.93;;
5961;SDS011;3007;50.770;0.250;2022-10-19T11:59:46;17.70;;;6.30;;
5961;SDS011;3007;50.770;0.250;2022-10-19T12:02:29;13.27;;;6.82;;
5961;SDS011;3007;50.770;0.250;2022-10-19T12:05:14;15.35;;;6.95;;
5961;SDS011;3007;50.770;0.250;2022-10-19T12:07:50;18.95;;;7.60;;
5961;SDS011;3007;50.770;0.250;2022-10-19T12:10:25;13.40;;;7.22;;
5961;SDS011;3007;50.770;0.250;2022-10-19T12:12:59;19.63;;;7.80;;
5961;SDS011;3007;50.770;0.250;2022-10-19T12:15:28;13.70;;;6.40;;
5961;SDS011;3007;50.770;0.250;2022-10-19T12:18:00;13.32;;;6.68;;
5961;SDS011;3007;50.770;0.250;2022-10-19T12:20:34;16.02;;;6.38;;
5961;SDS011;3007;50.770;0.250;2022-10-19T12:23:14;18.33;;;7.28;;
5961;SDS011;3007;50.770;0.250;2022-10-19T12:25:46;17.02;;;6.70;;
5961;SDS011;3007;50.770;0.250;2022-10-19T12:28:19;15.35;;;6.70;;
5961;SDS011;3007;50.770;0.250;2022-10-19T12:30:55;18.83;;;7.43;;
5961;SDS011;3007;50.770;0.250;2022-10-19T12:33:24;12.47;;;6.83;;
5961;SDS011;3007;50.770;0.250;2022-10-19T12:36:05;14.25;;;7.72;;
5961;SDS011;3007;50.770;0.250;2022-10-19T12:38:43;14.23;;;7.35;;
5961;SDS011;3007;50.770;0.250;2022-10-19T12:41:18;17.67;;;7.70;;
5961;SDS011;3007;50.770;0.250;2022-10-19T12:43:54;20.55;;;7.57;;
5961;SDS011;3007;50.770;0.250;2022-10-19T12:46:35;17.27;;;7.57;;
5961;SDS011;3007;50.770;0.250;2022-10-19T12:52:00;14.65;;;8.27;;
5961;SDS011;3007;50.770;0.250;2022-10-19T12:54:29;17.53;;;7.43;;
5961;SDS011;3007;50.770;0.250;2022-10-19T12:56:59;18.70;;;8.70;;
5961;SDS011;3007;50.770;0.250;2022-10-19T12:59:29;18.43;;;8.03;;
5961;SDS011;3007;50.770;0.250;2022-10-19T13:01:58;46.83;;;17.60;;
5961;SDS011;3007;50.770;0.250;2022-10-19T13:04:27;19.60;;;8.67;;
5961;SDS011;3007;50.770;0.250;2022-10-19T13:06:59;15.00;;;8.90;;
5961;SDS011;3007;50.770;0.250;2022-10-19T13:09:28;19.47;;;9.13;;
5961;SDS011;3007;50.770;0.250;2022-10-19T13:14:56;17.83;;;9.30;;
5961;SDS011;3007;50.770;0.250;2022-10-19T13:17:36;22.73;;;9.80;;
5961;SDS011;3007;50.770;0.250;2022-10-19T13:28:58;22.73;;;9.90;;
5961;SDS011;3007;50.770;0.250;2022-10-19T13:31:28;20.40;;;9.73;;
5961;SDS011;3007;50.770;0.250;2022-10-19T13:33:57;22.33;;;10.23;;
5961;SDS011;3007;50.770;0.250;2022-10-19T13:36:24;24.17;;;10.77;;
5961;SDS011;3007;50.770;0.250;2022-10-19T13:39:04;22.75;;;10.23;;
5961;SDS011;3007;50.770;0.250;2022-10-19T13:41:48;20.95;;;9.45;;
5961;SDS011;3007;50.770;0.250;2022-10-19T13:44:27;27.37;;;10.50;;
5961;SDS011;3007;50.770;0.250;2022-10-19T13:50:01;24.50;;;10.57;;
5961;SDS011;3007;50.770;0.250;2022-10-19T13:52:54;17.90;;;10.10;;
5961;SDS011;3007;50.770;0.250;2022-10-19T13:55:44;23.53;;;10.97;;
5961;SDS011;3007;50.770;0.250;2022-10-19T14:01:38;19.83;;;10.03;;
5961;SDS011;3007;50.770;0.250;2022-10-19T14:04:20;21.17;;;10.20;;
5961;SDS011;3007;50.770;0.250;2022-10-19T14:06:56;17.80;;;10.05;;
5961;SDS011;3007;50.770;0.250;2022-10-19T14:12:27;18.13;;;11.02;;
5961;SDS011;3007;50.770;0.250;2022-10-19T14:14:56;21.37;;;10.53;;
5961;SDS011;3007;50.770;0.250;2022-10-19T14:17:24;18.10;;;10.73;;
5961;SDS011;3007;50.770;0.250;2022-10-19T14:19:55;21.10;;;11.87;;
5961;SDS011;3007;50.770;0.250;2022-10-19T14:22:25;19.47;;;9.70;;
5961;SDS011;3007;50.770;0.250;2022-10-19T14:25:02;22.03;;;10.27;;
5961;SDS011;3007;50.770;0.250;2022-10-19T14:27:31;19.98;;;10.93;;
5961;SDS011;3007;50.770;0.250;2022-10-19T14:29:59;16.93;;;10.47;;
5961;SDS011;3007;50.770;0.250;2022-10-19T14:32:27;24.35;;;10.95;;
5961;SDS011;3007;50.770;0.250;2022-10-19T14:34:58;21.42;;;11.57;;
5961;SDS011;3007;50.770;0.250;2022-10-19T14:37:29;23.75;;;11.95;;
5961;SDS011;3007;50.770;0.250;2022-10-19T14:39:57;25.83;;;11.93;;
5961;SDS011;3007;50.770;0.250;2022-10-19T14:42:34;22.23;;;10.40;;
5961;SDS011;3007;50.770;0.250;2022-10-19T14:45:08;22.63;;;10.23;;
5961;SDS011;3007;50.770;0.250;2022-10-19T14:47:49;22.83;;;10.83;;
5961;SDS011;3007;50.770;0.250;2022-10-19T14:50:18;26.30;;;12.17;;
5961;SDS011;3007;50.770;0.250;2022-10-19T14:52:48;20.53;;;10.80;;
5961;SDS011;3007;50.770;0.250;2022-10-19T14:55:17;23.57;;;11.00;;
5961;SDS011;3007;50.770;0.250;2022-10-19T14:57:46;27.53;;;10.67;;
5961;SDS011;3007;50.770;0.250;2022-10-19T15:00:16;25.43;;;10.77;;
5961;SDS011;3007;50.770;0.250;2022-10-19T15:02:45;27.80;;;10.93;;
5961;SDS011;3007;50.770;0.250;2022-10-19T15:05:16;24.73;;;11.37;;
5961;SDS011;3007;50.770;0.250;2022-10-19T15:07:48;23.40;;;11.70;;
5961;SDS011;3007;50.770;0.250;2022-10-19T15:10:17;22.93;;;11.00;;
5961;SDS011;3007;50.770;0.250;2022-10-19T15:12:46;26.67;;;10.70;;
5961;SDS011;3007;50.770;0.250;2022-10-19T15:15:15;19.23;;;10.23;;
5961;SDS011;3007;50.770;0.250;2022-10-19T15:17:47;20.87;;;10.30;;
5961;SDS011;3007;50.770;0.250;2022-10-19T15:20:26;23.60;;;11.37;;
5961;SDS011;3007;50.770;0.250;2022-10-19T15:22:55;31.57;;;11.57;;
5961;SDS011;3007;50.770;0.250;2022-10-19T15:25:27;21.80;;;10.60;;
5961;SDS011;3007;50.770;0.250;2022-10-19T15:27:57;19.90;;;11.30;;
5961;SDS011;3007;50.770;0.250;2022-10-19T15:30:43;23.80;;;12.13;;
5961;SDS011;3007;50.770;0.250;2022-10-19T15:33:12;22.63;;;11.87;;
5961;SDS011;3007;50.770;0.250;2022-10-19T15:35:42;25.47;;;11.50;;
5961;SDS011;3007;50.770;0.250;2022-10-19T15:38:14;29.93;;;12.50;;
5961;SDS011;3007;50.770;0.250;2022-10-19T15:40:44;23.17;;;11.80;;
5961;SDS011;3007;50.770;0.250;2022-10-19T15:46:19;25.00;;;12.07;;
5961;SDS011;3007;50.770;0.250;2022-10-19T15:48:57;26.67;;;12.23;;
5961;SDS011;3007;50.770;0.250;2022-10-19T15:51:33;24.83;;;11.60;;